createdAt,value
2022-09-12T00:01:26.720Z,6.47
2022-09-12T00:03:54.868Z,7.43
2022-09-12T00:06:24.002Z,8.80
2022-09-12T00:08:51.665Z,5.97
2022-09-12T00:11:18.388Z,8.48
2022-09-12T00:13:45.150Z,5.82
2022-09-12T00:16:20.197Z,6.35
2022-09-12T00:18:47.300Z,5.50
2022-09-12T00:21:14.799Z,7.32
2022-09-12T00:23:41.561Z,5.75
2022-09-12T00:26:08.320Z,5.18
2022-09-12T00:28:36.196Z,8.60
2022-09-12T00:31:15.047Z,5.80
2022-09-12T00:33:42.007Z,7.60
2022-09-12T00:36:10.791Z,7.28
2022-09-12T00:38:38.806Z,8.70
2022-09-12T00:41:06.251Z,6.22
2022-09-12T00:43:45.346Z,7.45
2022-09-12T00:46:41.776Z,7.72
2022-09-12T00:49:19.171Z,7.60
2022-09-12T00:52:08.123Z,7.32
2022-09-12T00:54:43.365Z,6.97
2022-09-12T00:57:10.150Z,7.38
2022-09-12T00:59:58.522Z,6.80
2022-09-12T01:02:25.490Z,8.52
2022-09-12T01:04:53.080Z,7.95
2022-09-12T01:07:20.024Z,7.18
2022-09-12T01:09:46.774Z,7.63
2022-09-12T01:12:14.494Z,8.88
2022-09-12T01:14:41.234Z,7.88
2022-09-12T01:17:07.952Z,9.77
2022-09-12T01:19:57.376Z,9.43
2022-09-12T01:22:52.154Z,11.18
2022-09-12T01:25:21.925Z,9.27
2022-09-12T01:28:07.443Z,10.13
2022-09-12T01:30:55.746Z,9.77
2022-09-12T01:33:28.927Z,8.65
2022-09-12T01:39:11.838Z,9.60
2022-09-12T01:42:25.406Z,9.20
2022-09-12T01:45:19.129Z,9.75
2022-09-12T01:47:56.751Z,10.02
2022-09-12T01:50:27.694Z,8.98
2022-09-12T01:52:58.945Z,9.80
2022-09-12T01:55:52.302Z,12.15
2022-09-12T01:58:30.433Z,12.82
2022-09-12T02:01:13.799Z,9.65
2022-09-12T02:06:49.765Z,8.20
2022-09-12T02:09:21.324Z,9.27
2022-09-12T02:11:48.079Z,8.77
2022-09-12T02:14:37.181Z,8.63
2022-09-12T02:17:12.106Z,10.95
2022-09-12T02:19:47.167Z,9.43
2022-09-12T02:22:17.180Z,8.85
2022-09-12T02:24:45.613Z,9.23
2022-09-12T02:27:16.390Z,10.45
2022-09-12T02:29:44.666Z,12.38
2022-09-12T02:32:24.317Z,8.63
2022-09-12T02:35:07.329Z,9.23
2022-09-12T02:37:51.185Z,9.52
2022-09-12T02:40:18.317Z,10.50
2022-09-12T02:42:45.139Z,9.10
2022-09-12T02:45:12.539Z,8.30
2022-09-12T02:47:49.891Z,11.20
2022-09-12T02:50:16.728Z,11.57
2022-09-12T02:52:43.527Z,11.10
2022-09-12T02:55:11.699Z,9.25
2022-09-12T02:57:38.470Z,10.23
2022-09-12T03:00:05.821Z,9.57
2022-09-12T03:02:35.582Z,9.77
2022-09-12T03:05:23.153Z,10.40
2022-09-12T03:08:38.227Z,10.40
2022-09-12T03:11:34.154Z,12.85
2022-09-12T03:14:12.252Z,10.85
2022-09-12T03:16:47.207Z,10.68
2022-09-12T03:19:22.298Z,12.13
2022-09-12T03:21:58.747Z,12.25
2022-09-12T03:24:38.165Z,11.80
2022-09-12T03:27:09.247Z,11.98
2022-09-12T03:29:37.006Z,12.35
2022-09-12T03:32:03.807Z,12.35
2022-09-12T03:34:30.554Z,11.07
2022-09-12T03:36:57.307Z,10.93
2022-09-12T03:39:27.925Z,13.77
2022-09-12T03:41:55.338Z,10.77
2022-09-12T03:44:22.135Z,12.18
2022-09-12T03:46:48.849Z,11.05
2022-09-12T03:49:15.664Z,18.63
2022-09-12T03:51:43.258Z,13.18
2022-09-12T03:54:10.606Z,11.70
2022-09-12T03:56:37.431Z,11.18
2022-09-12T03:59:07.653Z,12.18
2022-09-12T04:01:34.475Z,12.32
2022-09-12T04:04:01.389Z,11.65
2022-09-12T04:06:28.102Z,11.38
2022-09-12T04:08:55.116Z,11.57
2022-09-12T04:11:22.273Z,14.05
2022-09-12T04:13:49.100Z,10.85
2022-09-12T04:16:16.545Z,11.45
2022-09-12T04:18:43.396Z,12.35
2022-09-12T04:21:12.300Z,11.55
2022-09-12T04:23:39.174Z,10.23
2022-09-12T04:26:08.615Z,11.43
2022-09-12T04:28:36.465Z,12.63
2022-09-12T04:31:12.332Z,10.52
2022-09-12T04:33:39.249Z,9.98
2022-09-12T04:36:07.315Z,10.70
2022-09-12T04:38:34.915Z,11.30
2022-09-12T04:41:01.833Z,11.85
2022-09-12T04:43:28.683Z,13.43
2022-09-12T04:45:55.615Z,16.23
2022-09-12T04:48:22.406Z,11.30
2022-09-12T04:50:49.230Z,10.32
2022-09-12T04:53:15.970Z,11.88
2022-09-12T04:55:42.753Z,11.25
2022-09-12T04:58:09.514Z,8.60
2022-09-12T05:00:36.326Z,8.75
2022-09-12T05:03:03.161Z,10.65
2022-09-12T05:05:29.917Z,8.82
2022-09-12T05:07:56.701Z,8.75
2022-09-12T05:10:31.853Z,7.45
2022-09-12T05:12:58.657Z,11.80
2022-09-12T05:15:26.579Z,11.45
2022-09-12T05:17:53.456Z,11.57
2022-09-12T05:20:21.468Z,8.57
2022-09-12T05:22:48.487Z,7.82
2022-09-12T05:25:15.413Z,6.40
2022-09-12T05:27:42.259Z,8.07
2022-09-12T05:30:09.886Z,9.85
2022-09-12T05:32:36.730Z,6.85
2022-09-12T05:35:03.687Z,7.93
2022-09-12T05:37:30.591Z,8.80
2022-09-12T05:40:00.070Z,8.93
2022-09-12T05:42:26.940Z,9.35
2022-09-12T05:44:54.120Z,8.80
2022-09-12T05:47:21.004Z,7.78
2022-09-12T05:49:48.171Z,7.65
2022-09-12T05:52:15.106Z,8.52
2022-09-12T05:54:41.991Z,6.82
2022-09-12T05:57:08.926Z,8.93
2022-09-12T05:59:36.301Z,8.85
2022-09-12T06:02:03.223Z,5.97
2022-09-12T06:04:30.154Z,5.30
2022-09-12T06:06:57.146Z,5.60
2022-09-12T06:09:25.701Z,5.60
2022-09-12T06:11:52.769Z,6.68
2022-09-12T06:14:19.664Z,5.65
2022-09-12T06:16:47.437Z,6.32
2022-09-12T06:19:19.011Z,5.63
2022-09-12T06:21:46.208Z,6.05
2022-09-12T06:24:13.124Z,8.63
2022-09-12T06:26:39.965Z,6.32
2022-09-12T06:29:07.641Z,6.22
2022-09-12T06:31:36.466Z,8.50
2022-09-12T06:34:14.421Z,8.40
2022-09-12T06:38:03.402Z,7.80
2022-09-12T06:40:49.924Z,5.30
2022-09-12T06:43:49.132Z,9.80
2022-09-12T06:47:03.148Z,8.77
2022-09-12T06:52:43.863Z,6.30
2022-09-12T07:02:29.113Z,7.15
2022-09-12T07:05:16.029Z,6.43
2022-09-12T07:08:03.875Z,6.20
2022-09-12T07:10:39.570Z,5.68
2022-09-12T07:13:17.657Z,7.07
2022-09-12T07:16:00.088Z,5.05
2022-09-12T07:18:41.700Z,6.47
2022-09-12T07:21:32.082Z,8.75
2022-09-12T07:24:11.202Z,8.38
2022-09-12T07:26:55.137Z,5.90
2022-09-12T07:29:39.868Z,8.10
2022-09-12T07:32:21.956Z,8.18
2022-09-12T07:35:00.984Z,6.32
2022-09-12T07:37:43.528Z,7.70
2022-09-12T07:40:22.641Z,6.78
2022-09-12T07:43:03.797Z,6.55
2022-09-12T07:45:45.278Z,6.57
2022-09-12T07:48:28.375Z,7.13
2022-09-12T07:53:45.039Z,5.88
2022-09-12T07:56:31.181Z,6.10
2022-09-12T07:59:18.915Z,6.07
2022-09-12T08:02:10.754Z,6.97
2022-09-12T08:04:55.078Z,6.28
2022-09-12T08:07:35.130Z,4.93
2022-09-12T08:10:15.140Z,6.53
2022-09-12T08:12:54.827Z,5.63
2022-09-12T08:15:21.553Z,5.82
2022-09-12T08:17:48.270Z,6.07
2022-09-12T08:20:15.229Z,5.13
2022-09-12T08:22:42.387Z,8.38
2022-09-12T08:25:09.382Z,6.07
2022-09-12T08:27:36.151Z,8.02
2022-09-12T08:30:03.802Z,6.20
2022-09-12T08:32:30.565Z,8.70
2022-09-12T08:34:57.357Z,6.88
2022-09-12T08:37:24.160Z,6.55
2022-09-12T08:39:52.844Z,5.00
2022-09-12T08:42:28.894Z,4.45
2022-09-12T08:45:31.386Z,4.07
2022-09-12T08:47:58.161Z,4.43
2022-09-12T08:50:24.952Z,4.10
2022-09-12T08:53:03.561Z,3.85
2022-09-12T08:55:46.883Z,3.53
2022-09-12T08:58:14.678Z,6.38
2022-09-12T09:01:02.957Z,4.28
2022-09-12T09:04:01.844Z,4.78
2022-09-12T09:06:50.479Z,7.28
2022-09-12T09:09:55.736Z,3.70
2022-09-12T09:12:57.427Z,4.78
2022-09-12T09:15:52.595Z,3.88
2022-09-12T09:18:24.067Z,4.30
2022-09-12T09:21:03.304Z,4.28
2022-09-12T09:23:34.272Z,5.00
2022-09-12T09:26:14.798Z,3.10
2022-09-12T09:28:57.170Z,3.10
2022-09-12T09:31:25.117Z,5.90
2022-09-12T09:33:54.156Z,5.70
2022-09-12T09:36:39.837Z,5.53
2022-09-12T09:39:20.491Z,3.33
2022-09-12T09:42:09.966Z,3.72
2022-09-12T09:44:36.799Z,3.33
2022-09-12T09:47:03.654Z,3.35
2022-09-12T09:49:31.954Z,5.10
2022-09-12T09:52:00.688Z,3.72
2022-09-12T09:54:40.226Z,4.50
2022-09-12T09:57:36.175Z,3.78
2022-09-12T10:00:34.527Z,4.25
2022-09-12T10:03:13.832Z,4.32
2022-09-12T10:05:47.973Z,3.85
2022-09-12T10:08:22.598Z,4.25
2022-09-12T10:11:00.284Z,3.88
2022-09-12T10:14:01.424Z,4.38
2022-09-12T10:16:30.346Z,3.75
2022-09-12T10:18:58.467Z,4.47
2022-09-12T10:21:30.009Z,3.90
2022-09-12T10:24:19.505Z,4.82
2022-09-12T10:26:58.781Z,4.38
2022-09-12T10:29:29.898Z,5.40
2022-09-12T10:31:58.859Z,3.88
2022-09-12T10:34:38.115Z,5.38
2022-09-12T10:37:10.055Z,4.43
2022-09-12T10:39:38.724Z,5.33
2022-09-12T10:42:05.836Z,4.15
2022-09-12T10:44:34.186Z,3.45
2022-09-12T10:47:19.326Z,3.58
2022-09-12T10:49:46.075Z,4.43
2022-09-12T10:52:23.438Z,5.30
2022-09-12T10:54:51.619Z,4.53
2022-09-12T10:57:37.386Z,3.22
2022-09-12T11:00:18.007Z,3.75
2022-09-12T11:02:57.220Z,3.60
2022-09-12T11:05:36.676Z,4.03
2022-09-12T11:08:14.901Z,4.65
2022-09-12T11:10:49.124Z,3.42
2022-09-12T11:13:49.379Z,4.00
2022-09-12T11:16:45.838Z,4.88
2022-09-12T11:19:40.206Z,3.85
2022-09-12T11:22:45.341Z,4.97
2022-09-12T11:25:29.077Z,3.88
2022-09-12T11:28:07.868Z,4.72
2022-09-12T11:30:39.999Z,3.90
2022-09-12T11:33:16.619Z,3.65
2022-09-12T11:35:55.512Z,4.35
2022-09-12T11:38:34.664Z,4.78
2022-09-12T11:41:07.280Z,4.53
2022-09-12T11:43:41.664Z,7.47
2022-09-12T11:46:14.200Z,3.60
2022-09-12T11:49:02.777Z,3.47
2022-09-12T11:51:49.833Z,3.88
2022-09-12T11:54:38.387Z,4.40
2022-09-12T11:57:17.395Z,3.33
2022-09-12T12:00:04.143Z,4.85
2022-09-12T12:02:37.157Z,4.43
2022-09-12T12:05:18.294Z,4.38
2022-09-12T12:07:54.451Z,4.53
2022-09-12T12:10:37.057Z,4.78
2022-09-12T12:13:29.219Z,4.00
2022-09-12T12:16:23.769Z,3.70
2022-09-12T12:18:57.764Z,4.05
2022-09-12T12:21:31.413Z,3.47
2022-09-12T12:24:10.592Z,3.40
2022-09-12T12:26:43.266Z,5.00
2022-09-12T12:29:22.334Z,3.58
2022-09-12T12:32:04.211Z,3.13
2022-09-12T12:34:41.313Z,3.40
2022-09-12T12:37:20.435Z,3.95
2022-09-12T12:39:50.981Z,3.63
2022-09-12T12:42:36.037Z,3.50
2022-09-12T12:45:04.437Z,4.53
2022-09-12T12:47:40.052Z,3.20
2022-09-12T12:50:19.695Z,3.28
2022-09-12T12:52:49.467Z,6.75
2022-09-12T12:55:29.972Z,4.25
2022-09-12T12:57:56.945Z,3.83
2022-09-12T13:00:28.408Z,3.55
2022-09-12T13:03:07.455Z,4.13
2022-09-12T13:05:44.272Z,3.97
2022-09-12T13:08:17.173Z,3.65
2022-09-12T13:13:32.166Z,3.35
2022-09-12T13:15:59.193Z,5.43
2022-09-12T13:18:41.120Z,4.30
2022-09-12T13:21:18.969Z,3.53
2022-09-12T13:23:45.880Z,3.20
2022-09-12T13:26:23.602Z,3.97
2022-09-12T13:28:51.558Z,4.53
2022-09-12T13:31:26.085Z,2.60
2022-09-12T13:33:56.874Z,2.92
2022-09-12T13:36:23.954Z,4.47
2022-09-12T13:39:20.767Z,4.22
2022-09-12T13:41:56.203Z,2.67
2022-09-12T13:44:23.974Z,3.30
2022-09-12T13:46:50.800Z,3.25
2022-09-12T13:49:43.921Z,3.47
2022-09-12T13:52:21.551Z,2.63
2022-09-12T13:54:50.289Z,2.90
2022-09-12T13:57:38.933Z,2.78
2022-09-12T14:00:19.980Z,2.67
2022-09-12T14:02:47.474Z,3.78
2022-09-12T14:05:25.431Z,3.30
2022-09-12T14:07:58.438Z,2.78
2022-09-12T14:10:44.971Z,3.45
2022-09-12T14:13:22.771Z,2.97
2022-09-12T14:15:52.574Z,7.53
2022-09-12T14:18:25.158Z,3.22
2022-09-12T14:20:53.377Z,3.05
2022-09-12T14:23:30.198Z,3.28
2022-09-12T14:25:58.257Z,3.58
2022-09-12T14:28:25.214Z,4.85
2022-09-12T14:31:06.746Z,3.10
2022-09-12T14:33:48.368Z,3.70
2022-09-12T14:36:41.578Z,3.00
2022-09-12T14:39:21.966Z,3.28
2022-09-12T14:42:02.048Z,3.25
2022-09-12T14:44:29.703Z,3.17
2022-09-12T14:47:01.537Z,3.22
2022-09-12T14:49:33.048Z,3.22
2022-09-12T14:52:01.743Z,3.20
2022-09-12T14:54:29.049Z,2.83
2022-09-12T14:56:56.970Z,4.45
2022-09-12T14:59:34.663Z,4.30
2022-09-12T15:02:13.853Z,3.20
2022-09-12T15:04:42.564Z,3.42
2022-09-12T15:07:34.690Z,3.00
2022-09-12T15:10:04.096Z,2.63
2022-09-12T15:12:30.943Z,3.00
2022-09-12T15:15:19.233Z,2.83
2022-09-12T15:17:46.053Z,3.10
2022-09-12T15:20:13.566Z,3.10
2022-09-12T15:22:40.618Z,2.42
2022-09-12T15:25:07.802Z,2.60
2022-09-12T15:27:34.578Z,2.90
2022-09-12T15:30:01.405Z,3.47
2022-09-12T15:32:29.889Z,2.75
2022-09-12T15:34:56.771Z,2.78
2022-09-12T15:37:24.166Z,3.50
2022-09-12T15:39:51.379Z,3.40
2022-09-12T15:42:19.266Z,3.50
2022-09-12T15:44:45.988Z,2.70
2022-09-12T15:47:13.388Z,3.20
2022-09-12T15:49:40.624Z,2.85
2022-09-12T15:52:14.947Z,2.20
2022-09-12T15:54:42.294Z,2.47
2022-09-12T15:57:09.669Z,3.28
2022-09-12T15:59:38.159Z,2.30
2022-09-12T16:02:05.225Z,2.47
2022-09-12T16:04:32.400Z,2.50
2022-09-12T16:06:59.633Z,3.80
2022-09-12T16:09:26.631Z,3.25
2022-09-12T16:11:53.350Z,9.75
2022-09-12T16:14:30.983Z,2.30
2022-09-12T16:16:58.177Z,2.80
2022-09-12T16:19:25.493Z,2.55
2022-09-12T16:21:52.275Z,2.88
2022-09-12T16:24:19.011Z,2.70
2022-09-12T16:26:45.714Z,2.30
2022-09-12T16:29:14.714Z,2.40
2022-09-12T16:31:41.518Z,2.60
2022-09-12T16:34:08.273Z,3.03
2022-09-12T16:36:34.986Z,4.45
2022-09-12T16:39:01.804Z,4.07
2022-09-12T16:41:55.766Z,3.20
2022-09-12T16:44:22.480Z,3.42
2022-09-12T16:46:50.426Z,3.08
2022-09-12T16:49:33.616Z,3.97
2022-09-12T16:52:00.715Z,5.25
2022-09-12T16:54:27.651Z,3.70
2022-09-12T16:56:54.415Z,3.20
2022-09-12T16:59:21.246Z,3.47
2022-09-12T17:01:48.317Z,3.47
2022-09-12T17:04:15.261Z,3.42
2022-09-12T17:06:42.658Z,4.28
2022-09-12T17:09:11.457Z,3.47
2022-09-12T17:11:38.784Z,5.93
2022-09-12T17:14:09.200Z,4.88
2022-09-12T17:16:38.448Z,4.05
2022-09-12T17:19:05.775Z,4.13
2022-09-12T17:21:32.779Z,5.00
2022-09-12T17:23:59.619Z,4.68
2022-09-12T17:26:26.827Z,6.07
2022-09-12T17:28:53.788Z,5.07
2022-09-12T17:31:20.796Z,5.25
2022-09-12T17:33:47.735Z,4.57
2022-09-12T17:36:16.612Z,5.20
2022-09-12T17:38:44.511Z,4.28
2022-09-12T17:41:17.480Z,5.70
2022-09-12T17:43:50.323Z,4.88
2022-09-12T17:46:20.463Z,6.22
2022-09-12T17:48:53.973Z,6.35
2022-09-12T17:51:21.726Z,6.82
2022-09-12T17:53:48.782Z,4.05
2022-09-12T17:56:15.775Z,4.95
2022-09-12T17:58:42.812Z,4.88
2022-09-12T18:01:35.136Z,4.65
2022-09-12T18:04:02.316Z,4.82
2022-09-12T18:06:29.489Z,6.10
2022-09-12T18:09:02.979Z,5.45
2022-09-12T18:11:29.894Z,6.28
2022-09-12T18:14:00.043Z,6.78
2022-09-12T18:16:28.282Z,7.95
2022-09-12T18:18:55.491Z,5.18
2022-09-12T18:21:23.947Z,8.23
2022-09-12T18:23:53.239Z,5.63
2022-09-12T18:26:20.073Z,8.30
2022-09-12T18:28:46.969Z,6.15
2022-09-12T18:31:21.941Z,6.40
2022-09-12T18:33:49.191Z,7.07
2022-09-12T18:36:18.250Z,5.88
2022-09-12T18:38:45.259Z,6.13
2022-09-12T18:41:19.873Z,7.35
2022-09-12T18:43:46.863Z,5.90
2022-09-12T18:46:18.491Z,7.63
2022-09-12T18:48:48.389Z,7.60
2022-09-12T18:51:15.952Z,8.02
2022-09-12T18:53:42.987Z,13.77
2022-09-12T18:56:12.418Z,7.55
2022-09-12T18:58:43.052Z,8.15
2022-09-12T19:01:23.422Z,7.25
2022-09-12T19:03:50.477Z,5.57
2022-09-12T19:06:28.915Z,7.43
2022-09-12T19:09:18.031Z,8.13
2022-09-12T19:11:55.941Z,6.13
2022-09-12T19:14:38.446Z,7.30
2022-09-12T19:17:08.176Z,9.40
2022-09-12T19:19:37.658Z,6.85
2022-09-12T19:22:32.608Z,6.03
2022-09-12T19:25:10.491Z,8.48
2022-09-12T19:27:40.394Z,7.15
2022-09-12T19:30:25.863Z,6.03
2022-09-12T19:33:03.624Z,6.85
2022-09-12T19:35:37.295Z,6.50
2022-09-12T19:38:10.758Z,7.07
2022-09-12T19:40:49.381Z,6.28
2022-09-12T19:43:31.125Z,5.57
2022-09-12T19:46:18.906Z,7.13
2022-09-12T19:49:04.280Z,7.70
2022-09-12T19:51:43.952Z,8.77
2022-09-12T19:54:35.028Z,9.15
2022-09-12T19:57:20.064Z,12.50
2022-09-12T20:00:08.114Z,7.78
2022-09-12T20:02:47.384Z,5.22
2022-09-12T20:05:28.961Z,6.47
2022-09-12T20:08:04.019Z,7.53
2022-09-12T20:10:42.944Z,6.97
2022-09-12T20:13:23.831Z,7.97
2022-09-12T20:16:02.092Z,7.63
2022-09-12T20:18:51.347Z,5.20
2022-09-12T20:21:33.387Z,6.97
2022-09-12T20:24:18.942Z,6.40
2022-09-12T20:26:57.725Z,9.90
2022-09-12T20:29:36.148Z,9.75
2022-09-12T20:32:14.847Z,7.07
2022-09-12T20:34:53.988Z,5.72
2022-09-12T20:37:32.242Z,5.45
2022-09-12T20:40:01.899Z,5.65
2022-09-12T20:45:14.203Z,8.13
2022-09-12T20:47:41.029Z,6.55
2022-09-12T20:50:08.197Z,10.18
2022-09-12T20:52:34.994Z,6.97
2022-09-12T20:55:04.074Z,5.70
2022-09-12T20:57:34.479Z,9.38
2022-09-12T21:00:01.509Z,6.85
2022-09-12T21:30:03.867Z,5.32
2022-09-12T21:32:34.739Z,8.38
2022-09-12T21:37:46.935Z,6.47
2022-09-12T21:53:04.919Z,6.07
2022-09-12T21:58:27.762Z,6.28
2022-09-12T22:00:54.517Z,7.10
2022-09-12T22:03:21.303Z,11.07
2022-09-12T22:05:51.848Z,6.80
2022-09-12T22:08:18.579Z,5.70
2022-09-12T22:10:45.491Z,5.18
2022-09-12T22:13:12.283Z,5.00
2022-09-12T22:15:40.872Z,5.57
2022-09-12T22:18:08.042Z,5.75
2022-09-12T22:20:34.748Z,6.53
2022-09-12T22:23:24.396Z,5.60
2022-09-12T22:25:54.310Z,5.65
2022-09-12T22:28:21.386Z,5.97
2022-09-12T22:30:48.677Z,7.43
2022-09-12T22:33:15.464Z,5.47
2022-09-12T22:35:42.517Z,7.20
2022-09-12T22:38:09.356Z,6.00
2022-09-12T22:40:36.116Z,6.90
2022-09-12T22:43:02.823Z,6.38
2022-09-12T22:45:29.518Z,4.88
2022-09-12T22:48:00.432Z,7.88
2022-09-12T22:50:27.675Z,6.50
2022-09-12T22:52:54.398Z,10.27
2022-09-12T22:55:21.118Z,6.07
2022-09-12T22:57:47.845Z,6.95
2022-09-12T23:00:15.053Z,6.50
2022-09-12T23:02:41.849Z,5.78
2022-09-12T23:05:08.850Z,5.10
2022-09-12T23:07:35.710Z,8.05
2022-09-12T23:10:02.503Z,4.93
2022-09-12T23:12:29.595Z,6.07
2022-09-12T23:14:56.315Z,6.50
2022-09-12T23:17:23.051Z,5.60
2022-09-12T23:19:49.769Z,5.45
2022-09-12T23:22:16.488Z,6.53
2022-09-12T23:24:43.194Z,5.90
2022-09-12T23:27:09.936Z,6.47
2022-09-12T23:29:36.661Z,5.85
2022-09-12T23:32:04.161Z,5.75
2022-09-12T23:34:30.989Z,8.90
2022-09-12T23:36:57.722Z,4.72
2022-09-12T23:39:24.517Z,6.93
2022-09-12T23:41:52.056Z,5.95
2022-09-12T23:44:18.785Z,6.07
2022-09-12T23:46:45.545Z,6.43
2022-09-12T23:49:12.322Z,11.65
2022-09-12T23:51:39.078Z,4.78
2022-09-12T23:54:05.868Z,4.70
2022-09-12T23:56:32.554Z,7.15
2022-09-12T23:58:59.264Z,7.85
